Time;durP1;ratioP1;P1;durP2;ratioP2;P2;SDS_P1;SDS_P2;PMS_P1;PMS_P2;Temp;Humidity;BMP_temperature;BMP_pressure;BME280_temperature;BME280_humidity;BME280_pressure;Samples;Min_cycle;Max_cycle;Signal;HPM_P1;HPM_P2
2023/08/18 00:02:21;;;;;;;20.60;10.63;;;;;;;16.98;100.00;101269.66;6122358;28;20039;-65
2023/08/18 00:05:16;;;;;;;20.13;10.57;;;;;;;16.91;100.00;101270.50;6120779;28;20138;-64
2023/08/18 00:08:11;;;;;;;24.48;11.07;;;;;;;16.79;100.00;101253.16;6114005;28;20082;-65
2023/08/18 00:11:08;;;;;;;24.13;10.90;;;;;;;16.76;100.00;101246.28;6122278;28;20502;-65
2023/08/18 00:14:03;;;;;;;25.00;11.57;;;;;;;16.80;100.00;101262.84;6124755;28;20442;-65
2023/08/18 00:16:59;;;;;;;24.92;11.77;;;;;;;16.64;100.00;101253.84;6122196;28;20028;-65
2023/08/18 00:19:54;;;;;;;23.27;10.30;;;;;;;16.88;100.00;101270.84;6122539;28;20040;-65
2023/08/18 00:22:49;;;;;;;26.67;11.13;;;;;;;16.84;100.00;101261.50;6122062;28;20097;-65
2023/08/18 00:25:45;;;;;;;26.27;11.77;;;;;;;16.85;100.00;101268.53;6115276;28;20031;-65
2023/08/18 00:28:40;;;;;;;23.13;10.80;;;;;;;16.63;100.00;101244.13;6121384;28;20051;-65
2023/08/18 00:31:35;;;;;;;26.23;10.60;;;;;;;16.78;100.00;101278.25;6122046;28;20036;-65
2023/08/18 00:34:31;;;;;;;21.80;10.27;;;;;;;16.82;100.00;101274.25;6121411;28;20035;-65
2023/08/18 00:37:26;;;;;;;21.05;10.10;;;;;;;16.73;100.00;101259.19;6122090;28;20373;-65
2023/08/18 00:40:24;;;;;;;19.37;9.20;;;;;;;16.69;100.00;101249.84;6114508;28;20036;-65
2023/08/18 00:43:20;;;;;;;19.00;10.73;;;;;;;16.77;100.00;101264.03;6121347;28;20492;-65
2023/08/18 00:46:17;;;;;;;21.35;10.43;;;;;;;16.65;100.00;101263.56;6121504;28;20035;-65
2023/08/18 00:49:12;;;;;;;18.77;9.85;;;;;;;16.88;100.00;101287.75;6120893;28;20036;-65
2023/08/18 00:52:08;;;;;;;23.20;10.18;;;;;;;16.83;100.00;101281.25;6123809;28;20064;-64
2023/08/18 00:55:04;;;;;;;18.55;9.98;;;;;;;16.85;100.00;101269.34;6123139;28;20045;-65
2023/08/18 00:58:00;;;;;;;15.70;8.95;;;;;;;16.83;100.00;101262.50;6113392;28;20029;-65
2023/08/18 01:00:55;;;;;;;20.70;9.25;;;;;;;16.81;100.00;101261.84;6120385;28;20039;-65
2023/08/18 01:03:51;;;;;;;19.33;10.23;;;;;;;16.81;100.00;101267.19;6119360;28;20040;-65
2023/08/18 01:06:46;;;;;;;18.05;9.60;;;;;;;16.84;100.00;101269.53;6120239;28;20035;-65
2023/08/18 01:09:42;;;;;;;16.20;9.90;;;;;;;16.88;100.00;101265.47;6121973;28;20028;-65
2023/08/18 01:13:17;;;;;;;18.13;9.40;;;;;;;16.88;100.00;101276.19;6131979;28;20573;-65
2023/08/18 01:16:20;;;;;;;18.05;9.52;;;;;;;16.83;100.00;101262.50;6104662;28;20479;-65
2023/08/18 01:19:18;;;;;;;19.35;10.75;;;;;;;16.79;100.00;101264.69;6144631;28;20479;-65
2023/08/18 01:22:16;;;;;;;21.50;11.50;;;;;;;16.75;100.00;101262.53;6144846;28;20059;-65
2023/08/18 01:25:11;;;;;;;23.80;10.60;;;;;;;16.65;100.00;101257.38;6125151;28;20105;-65
2023/08/18 01:28:07;;;;;;;23.23;10.67;;;;;;;16.63;100.00;101268.25;6117039;28;20421;-65
2023/08/18 01:31:04;;;;;;;22.90;10.70;;;;;;;16.66;100.00;101273.25;6114459;28;20446;-65
2023/08/18 01:34:02;;;;;;;22.05;10.73;;;;;;;16.62;100.00;101253.19;6119157;28;20336;-65
2023/08/18 01:36:59;;;;;;;23.80;10.88;;;;;;;16.74;100.00;101256.31;6120288;28;20111;-65
2023/08/18 01:39:54;;;;;;;19.92;10.48;;;;;;;16.88;100.00;101268.16;6120145;28;20524;-65
2023/08/18 01:42:51;;;;;;;20.02;9.57;;;;;;;16.74;100.00;101263.56;6119619;28;20032;-65
2023/08/18 01:45:46;;;;;;;22.73;10.57;;;;;;;16.75;100.00;101262.53;6119748;28;20028;-65
2023/08/18 01:48:41;;;;;;;23.30;10.77;;;;;;;16.60;100.00;101249.84;6121047;28;20035;-65
2023/08/18 01:51:37;;;;;;;20.13;9.70;;;;;;;16.83;100.00;101251.78;6121925;28;20016;-65
2023/08/18 01:54:33;;;;;;;17.07;9.47;;;;;;;16.83;100.00;101247.25;6122677;28;20037;-65
2023/08/18 01:57:28;;;;;;;21.60;10.90;;;;;;;16.90;100.00;101237.53;6120476;28;20190;-65
2023/08/18 02:00:23;;;;;;;23.77;12.20;;;;;;;16.76;100.00;101235.56;6117069;28;20025;-65
2023/08/18 02:03:19;;;;;;;22.80;10.57;;;;;;;16.73;100.00;101235.91;6105085;28;20330;-65
2023/08/18 02:06:14;;;;;;;17.30;9.03;;;;;;;16.85;100.00;101255.94;6119341;28;20384;-65
2023/08/18 02:09:10;;;;;;;22.15;9.95;;;;;;;16.82;100.00;101248.28;6113657;28;20028;-65
2023/08/18 02:12:06;;;;;;;16.37;9.07;;;;;;;16.92;100.00;101253.44;6120513;28;20361;-65
2023/08/18 02:15:01;;;;;;;22.55;11.30;;;;;;;16.84;100.00;101250.78;6127029;28;20344;-65
2023/08/18 02:17:56;;;;;;;21.23;10.63;;;;;;;16.77;100.00;101236.41;6125889;28;20036;-65
2023/08/18 02:20:58;;;;;;;24.43;9.70;;;;;;;17.01;100.00;101247.03;6120449;28;20271;-65
2023/08/18 02:23:53;;;;;;;18.48;9.02;;;;;;;16.92;100.00;101248.06;6119984;28;20060;-65
2023/08/18 02:26:49;;;;;;;21.80;10.30;;;;;;;16.71;100.00;101229.91;6120192;28;20442;-65
2023/08/18 02:29:44;;;;;;;24.10;11.33;;;;;;;16.80;100.00;101233.38;6123066;28;20036;-65
2023/08/18 02:32:39;;;;;;;19.50;9.77;;;;;;;16.73;100.00;101224.38;6122479;28;20040;-65
2023/08/18 02:35:35;;;;;;;17.97;10.43;;;;;;;16.67;100.00;101229.41;6124071;28;20068;-65
2023/08/18 02:38:32;;;;;;;22.60;10.43;;;;;;;16.69;100.00;101217.69;6124708;28;20050;-64
2023/08/18 02:41:27;;;;;;;19.77;10.00;;;;;;;16.75;100.00;101235.72;6124120;28;20028;-65
2023/08/18 02:44:25;;;;;;;18.60;9.67;;;;;;;16.86;100.00;101240.72;6123909;28;20039;-65
2023/08/18 02:47:21;;;;;;;20.65;10.02;;;;;;;16.87;100.00;101226.31;6124330;28;20025;-65
2023/08/18 02:50:16;;;;;;;20.10;9.53;;;;;;;16.74;100.00;101221.50;6123944;28;20037;-65
2023/08/18 02:53:13;;;;;;;22.30;8.43;;;;;;;16.73;100.00;101216.34;6124048;28;20031;-65
2023/08/18 02:56:08;;;;;;;16.70;9.38;;;;;;;16.84;100.00;101226.66;6124316;28;20472;-65
2023/08/18 02:59:03;;;;;;;20.27;9.60;;;;;;;16.88;100.00;101236.84;6124362;28;20036;-65
2023/08/18 03:01:59;;;;;;;18.13;8.83;;;;;;;16.73;100.00;101219.00;6124097;28;20097;-64
2023/08/18 03:04:54;;;;;;;16.30;9.30;;;;;;;16.73;100.00;101227.03;6123097;28;20032;-64
2023/08/18 03:07:49;;;;;;;18.30;9.77;;;;;;;16.79;100.00;101247.78;6124025;28;20327;-64
2023/08/18 03:10:57;;;;;;;18.27;8.57;;;;;;;16.80;100.00;101239.56;6124204;28;20484;-65
2023/08/18 03:13:53;;;;;;;17.13;9.15;;;;;;;16.88;100.00;101252.09;6123384;28;20493;-65
2023/08/18 03:16:48;;;;;;;18.47;8.93;;;;;;;16.73;100.00;101233.25;6131132;28;20040;-64
2023/08/18 03:19:43;;;;;;;17.97;9.40;;;;;;;16.79;100.00;101232.56;6124056;28;20074;-64
2023/08/18 03:22:38;;;;;;;18.97;9.17;;;;;;;16.80;100.00;101241.41;6123701;28;20032;-66
2023/08/18 03:25:34;;;;;;;16.10;8.50;;;;;;;16.73;100.00;101235.91;6124285;28;20395;-66
2023/08/18 03:28:31;;;;;;;15.13;9.17;;;;;;;16.75;100.00;101231.22;6125329;28;20035;-66
2023/08/18 03:31:26;;;;;;;17.88;7.95;;;;;;;16.81;100.00;101229.69;6122265;28;20032;-66
2023/08/18 03:34:22;;;;;;;18.37;7.83;;;;;;;16.87;100.00;101250.44;6122451;28;20071;-66
2023/08/18 03:37:17;;;;;;;14.10;7.90;;;;;;;16.81;100.00;101219.81;6123363;28;20028;-66
2023/08/18 03:40:12;;;;;;;12.50;8.20;;;;;;;17.04;100.00;101233.28;6123333;28;20039;-66
2023/08/18 03:43:08;;;;;;;17.13;8.48;;;;;;;16.88;100.00;101230.66;6123242;28;20480;-66
2023/08/18 03:46:16;;;;;;;14.30;7.73;;;;;;;16.79;100.00;101221.84;6122833;28;20054;-66
2023/08/18 03:49:11;;;;;;;16.33;8.73;;;;;;;16.77;100.00;101217.66;6122023;28;20025;-66
2023/08/18 03:52:06;;;;;;;13.50;7.60;;;;;;;16.76;100.00;101224.03;6123020;28;20443;-66
2023/08/18 03:55:02;;;;;;;15.80;9.27;;;;;;;16.73;100.00;101237.75;6122254;28;20028;-66
2023/08/18 03:57:57;;;;;;;17.27;8.90;;;;;;;16.58;100.00;101210.84;6122792;28;20032;-66
2023/08/18 04:01:00;;;;;;;15.90;8.50;;;;;;;16.58;100.00;101202.81;6147337;28;20753;-66
2023/08/18 04:03:59;;;;;;;14.38;7.55;;;;;;;16.73;100.00;101237.75;6142052;28;20464;-66
2023/08/18 04:06:54;;;;;;;12.73;7.38;;;;;;;16.77;100.00;101234.56;6122640;28;20040;-66
2023/08/18 04:09:49;;;;;;;13.80;7.73;;;;;;;16.68;100.00;101216.88;6122314;28;20051;-66
2023/08/18 04:12:45;;;;;;;14.83;7.53;;;;;;;16.78;100.00;101230.03;6122537;28;20052;-66
2023/08/18 04:15:41;;;;;;;16.17;8.10;;;;;;;16.72;100.00;101222.69;6133805;28;20040;-66
2023/08/18 04:18:36;;;;;;;16.33;9.27;;;;;;;16.69;100.00;101228.41;6129463;28;20033;-66
2023/08/18 04:21:32;;;;;;;15.03;7.40;;;;;;;16.64;100.00;101229.75;6142622;28;20040;-66
2023/08/18 04:24:27;;;;;;;14.00;8.20;;;;;;;16.70;100.00;101238.09;6127087;28;20028;-66
2023/08/18 04:27:23;;;;;;;15.00;8.63;;;;;;;16.66;100.00;101227.72;6123568;28;20047;-66
2023/08/18 04:30:18;;;;;;;17.10;9.13;;;;;;;16.58;100.00;101219.72;6146923;28;20024;-66
2023/08/18 04:33:14;;;;;;;13.37;8.10;;;;;;;16.61;100.00;101227.41;6146560;28;20032;-66
2023/08/18 04:36:09;;;;;;;18.00;8.70;;;;;;;16.55;100.00;101216.56;6139490;28;20035;-66
2023/08/18 04:39:04;;;;;;;17.20;9.50;;;;;;;16.64;100.00;101229.75;6122003;28;20086;-65
2023/08/18 04:42:00;;;;;;;16.77;8.87;;;;;;;16.61;100.00;101226.56;6121933;28;20028;-66
2023/08/18 04:44:55;;;;;;;14.13;7.40;;;;;;;16.62;100.00;101221.06;6121514;28;20038;-66
2023/08/18 04:47:50;;;;;;;13.43;7.90;;;;;;;16.56;100.00;101219.06;6121618;28;20036;-66
2023/08/18 04:50:46;;;;;;;13.40;7.97;;;;;;;16.59;100.00;101218.72;6139210;28;20184;-66
2023/08/18 04:53:41;;;;;;;15.10;8.05;;;;;;;16.61;100.00;101219.38;6130093;28;20027;-66
2023/08/18 04:56:36;;;;;;;13.87;8.23;;;;;;;16.72;100.00;101236.06;6143975;28;20056;-66
2023/08/18 04:59:32;;;;;;;11.73;7.32;;;;;;;16.76;100.00;101242.78;6127180;28;20060;-66
2023/08/18 05:02:27;;;;;;;18.30;8.07;;;;;;;16.70;100.00;101232.75;6131446;28;20043;-67
2023/08/18 05:05:22;;;;;;;15.97;7.90;;;;;;;16.77;100.00;101233.75;6141484;28;20032;-66
2023/08/18 05:08:18;;;;;;;14.07;8.13;;;;;;;16.84;100.00;101229.34;6121785;28;20374;-66
2023/08/18 05:11:13;;;;;;;13.50;7.97;;;;;;;16.85;100.00;101228.34;6121567;28;20094;-66
2023/08/18 05:14:08;;;;;;;15.87;7.17;;;;;;;16.83;100.00;101215.13;6121669;28;20392;-66
2023/08/18 05:17:03;;;;;;;15.70;7.80;;;;;;;16.85;100.00;101220.31;6121612;28;20033;-66
2023/08/18 05:19:59;;;;;;;11.27;7.13;;;;;;;16.94;100.00;101236.16;6121661;28;20036;-66
2023/08/18 05:22:54;;;;;;;12.73;6.97;;;;;;;17.03;100.00;101240.47;6121636;28;20332;-66
2023/08/18 05:25:53;;;;;;;13.67;7.60;;;;;;;17.03;100.00;101211.00;6120608;28;20024;-66
2023/08/18 05:28:49;;;;;;;12.23;7.38;;;;;;;17.14;100.00;101220.50;6121729;28;20396;-66
2023/08/18 05:31:45;;;;;;;11.90;7.00;;;;;;;17.26;100.00;101229.78;6120957;28;20035;-66
2023/08/18 05:34:40;;;;;;;14.10;7.20;;;;;;;17.25;100.00;101214.75;6120723;28;20041;-66
2023/08/18 05:37:35;;;;;;;14.30;7.27;;;;;;;17.22;100.00;101207.03;6121426;28;20039;-66
2023/08/18 05:40:31;;;;;;;11.27;6.65;;;;;;;17.29;100.00;101218.72;6121232;28;20035;-66
2023/08/18 05:43:27;;;;;;;11.13;6.83;;;;;;;17.46;100.00;101230.16;6121198;28;20032;-66
2023/08/18 05:46:22;;;;;;;12.13;6.83;;;;;;;17.46;100.00;101225.66;6121727;28;20055;-66
2023/08/18 05:49:17;;;;;;;11.00;6.17;;;;;;;17.45;100.00;101210.56;6121460;28;20033;-66
2023/08/18 05:52:13;;;;;;;10.03;6.63;;;;;;;17.60;100.00;101211.50;6121304;28;20044;-66
2023/08/18 05:55:08;;;;;;;10.90;6.30;;;;;;;17.90;100.00;101220.47;6120510;28;20037;-66
2023/08/18 05:58:04;;;;;;;10.10;6.10;;;;;;;18.08;100.00;101206.72;6121375;28;20051;-64
2023/08/18 06:00:59;;;;;;;8.88;5.72;;;;;;;18.26;100.00;101223.34;6135331;28;20035;-65
2023/08/18 06:03:54;;;;;;;11.27;6.73;;;;;;;18.08;100.00;101220.13;6138386;28;20067;-65
2023/08/18 06:06:49;;;;;;;10.50;6.67;;;;;;;18.01;100.00;101208.47;6125366;28;20032;-65
2023/08/18 06:09:45;;;;;;;12.00;6.77;;;;;;;18.17;100.00;101225.25;6125270;28;20051;-65
2023/08/18 06:12:40;;;;;;;11.37;7.23;;;;;;;18.43;100.00;101208.69;6125378;28;20037;-65
2023/08/18 06:15:36;;;;;;;11.80;6.83;;;;;;;18.40;100.00;101209.06;6117556;28;20492;-65
2023/08/18 06:18:32;;;;;;;10.57;6.25;;;;;;;18.57;100.00;101207.06;6119296;28;20448;-65
2023/08/18 06:21:28;;;;;;;13.70;7.05;;;;;;;18.38;100.00;101216.47;6124928;28;20037;-65
2023/08/18 06:24:23;;;;;;;11.17;6.60;;;;;;;18.58;100.00;101209.59;6122623;28;20381;-65
2023/08/18 06:27:18;;;;;;;13.97;7.37;;;;;;;18.60;100.00;101212.91;6123186;28;20029;-65
2023/08/18 06:30:14;;;;;;;10.00;7.07;;;;;;;19.14;100.00;101220.59;6125139;28;20043;-66
2023/08/18 06:33:09;;;;;;;10.57;6.63;;;;;;;19.77;100.00;101217.16;6117266;28;20028;-65
2023/08/18 06:36:05;;;;;;;9.83;6.10;;;;;;;19.92;100.00;101213.34;6119180;28;20275;-65
2023/08/18 06:39:00;;;;;;;9.63;6.60;;;;;;;19.93;100.00;101211.50;6129607;28;20036;-65
2023/08/18 06:41:55;;;;;;;12.73;6.73;;;;;;;20.04;100.00;101230.66;6124273;28;20078;-65
2023/08/18 06:44:50;;;;;;;17.37;7.00;;;;;;;20.00;100.00;101213.22;6123467;28;20501;-65
2023/08/18 06:47:46;;;;;;;13.13;7.10;;;;;;;20.17;100.00;101225.38;6123838;28;20036;-65
2023/08/18 06:50:41;;;;;;;10.50;5.93;;;;;;;20.84;100.00;101224.78;6121070;28;20028;-65
2023/08/18 06:53:36;;;;;;;8.60;5.72;;;;;;;21.52;100.00;101209.47;6128158;28;20119;-65
2023/08/18 06:56:32;;;;;;;12.77;6.70;;;;;;;21.72;100.00;101200.34;6128320;28;20083;-65
2023/08/18 06:59:28;;;;;;;10.68;6.32;;;;;;;21.72;100.00;101223.81;6123284;28;20040;-65
2023/08/18 07:02:23;;;;;;;9.60;5.70;;;;;;;22.06;100.00;101209.31;6123550;28;20533;-66
2023/08/18 07:05:18;;;;;;;10.77;5.70;;;;;;;22.16;98.44;101215.97;6123145;28;20032;-66
2023/08/18 07:08:14;;;;;;;11.07;6.57;;;;;;;22.82;96.27;101202.31;6128755;28;20029;-66
2023/08/18 07:11:09;;;;;;;9.03;6.30;;;;;;;23.35;90.61;101221.81;6129454;28;20025;-66
2023/08/18 07:14:04;;;;;;;9.25;5.90;;;;;;;23.07;90.96;101227.63;6135300;28;20028;-66
2023/08/18 07:17:00;;;;;;;7.57;5.63;;;;;;;22.72;93.37;101226.28;6123988;28;20086;-66
2023/08/18 07:19:55;;;;;;;9.83;6.13;;;;;;;22.65;95.99;101229.00;6123660;28;20044;-66
2023/08/18 07:22:50;;;;;;;9.47;6.30;;;;;;;21.93;97.60;101223.69;6123429;28;20396;-66
2023/08/18 07:25:46;;;;;;;10.63;6.07;;;;;;;22.02;99.18;101218.88;6122781;28;20032;-66
2023/08/18 07:28:41;;;;;;;12.87;6.67;;;;;;;22.56;93.71;101210.50;6123190;28;20033;-65
2023/08/18 07:31:37;;;;;;;12.27;6.40;;;;;;;22.10;96.54;101207.84;6123349;28;20271;-66
2023/08/18 07:34:32;;;;;;;9.73;6.50;;;;;;;22.69;95.76;101221.31;6118513;28;20037;-66
2023/08/18 07:37:28;;;;;;;13.33;5.60;;;;;;;22.71;93.82;101230.03;6123087;28;20043;-66
2023/08/18 07:40:23;;;;;;;11.47;6.03;;;;;;;22.23;97.86;101210.56;6135385;28;20028;-66
2023/08/18 07:43:19;;;;;;;10.85;5.75;;;;;;;22.51;97.54;101230.88;6122105;28;20037;-66
2023/08/18 07:46:14;;;;;;;10.20;6.65;;;;;;;22.24;99.54;101223.84;6125024;28;20086;-65
2023/08/18 07:49:09;;;;;;;10.82;5.95;;;;;;;22.15;99.02;101229.69;6122383;28;20063;-65
2023/08/18 07:52:04;;;;;;;10.17;6.23;;;;;;;22.10;99.51;101222.19;6122918;28;20045;-66
2023/08/18 07:55:01;;;;;;;13.00;6.73;;;;;;;22.08;99.11;101228.84;6122470;28;20029;-66
2023/08/18 07:57:56;;;;;;;10.48;6.25;;;;;;;21.70;100.00;101228.59;6123281;28;20039;-65
2023/08/18 08:00:52;;;;;;;9.07;5.90;;;;;;;21.84;100.00;101222.19;6122556;28;20036;-66
2023/08/18 08:03:47;;;;;;;11.55;6.70;;;;;;;21.81;100.00;101222.59;6120109;28;20028;-66
2023/08/18 08:06:42;;;;;;;9.23;5.77;;;;;;;22.52;100.00;101227.13;6121683;28;20191;-66
2023/08/18 08:09:39;;;;;;;13.23;6.07;;;;;;;22.39;100.00;101221.72;6122008;28;20728;-66
2023/08/18 08:12:36;;;;;;;10.38;5.88;;;;;;;22.77;97.41;101229.19;6121136;28;20340;-66
2023/08/18 08:15:31;;;;;;;8.95;5.93;;;;;;;22.36;99.90;101224.88;6120619;28;20043;-66
2023/08/18 08:18:27;;;;;;;7.63;5.10;;;;;;;22.53;98.16;101236.91;6121355;28;20472;-66
2023/08/18 08:21:22;;;;;;;9.67;5.70;;;;;;;22.22;100.00;101215.13;6127275;28;20691;-66
2023/08/18 08:24:18;;;;;;;9.68;6.13;;;;;;;22.12;100.00;101227.41;6120740;28;20112;-65
2023/08/18 08:27:15;;;;;;;8.45;6.18;;;;;;;22.40;100.00;101228.81;6115543;28;20535;-66
2023/08/18 08:30:12;;;;;;;8.45;5.68;;;;;;;22.37;100.00;101225.69;6121769;28;20153;-66
2023/08/18 08:33:08;;;;;;;8.02;5.63;;;;;;;22.46;100.00;101222.56;6128436;28;20073;-65
2023/08/18 08:36:04;;;;;;;9.73;5.90;;;;;;;22.53;100.00;101220.66;6137795;28;20032;-66
2023/08/18 08:39:00;;;;;;;9.88;5.88;;;;;;;22.74;100.00;101226.91;6125104;28;20050;-66
2023/08/18 08:41:55;;;;;;;8.55;5.95;;;;;;;22.65;100.00;101233.56;6124325;28;20045;-66
2023/08/18 08:44:51;;;;;;;11.30;6.63;;;;;;;22.93;98.50;101224.13;6120451;28;20028;-65
2023/08/18 08:47:47;;;;;;;11.27;6.85;;;;;;;23.02;97.91;101240.94;6124491;28;20081;-66
2023/08/18 08:50:45;;;;;;;9.15;6.20;;;;;;;22.81;100.00;101230.41;6120081;28;20060;-66
2023/08/18 08:53:47;;;;;;;9.85;6.40;;;;;;;23.19;97.37;101233.16;6119487;28;20131;-66
2023/08/18 08:56:42;;;;;;;11.25;6.18;;;;;;;23.54;94.75;101237.16;6121488;28;20039;-66
2023/08/18 08:59:37;;;;;;;10.30;6.68;;;;;;;23.08;98.64;101231.97;6120202;28;20041;-66
2023/08/18 09:02:33;;;;;;;9.93;6.60;;;;;;;22.54;100.00;101241.28;6120704;28;20408;-66
2023/08/18 09:05:32;;;;;;;11.88;7.50;;;;;;;22.36;100.00;101227.59;6129921;28;20032;-66
2023/08/18 09:08:27;;;;;;;11.38;7.35;;;;;;;22.43;100.00;101224.84;6121221;28;20064;-66
2023/08/18 09:11:42;;;;;;;11.77;7.00;;;;;;;23.41;100.00;101243.50;6120853;28;20407;-66
2023/08/18 09:14:41;;;;;;;12.10;7.90;;;;;;;23.41;95.61;101223.69;6119966;28;20119;-66
2023/08/18 09:17:36;;;;;;;12.15;8.25;;;;;;;23.53;94.19;101220.09;6121462;28;20040;-65
2023/08/18 09:20:31;;;;;;;10.10;7.50;;;;;;;23.18;98.37;101208.00;6119318;28;20047;-66
2023/08/18 09:23:27;;;;;;;16.30;9.70;;;;;;;22.81;98.40;101211.47;6119837;28;20036;-66
2023/08/18 09:26:24;;;;;;;12.20;7.50;;;;;;;22.98;100.00;101199.97;6120128;28;20064;-66
2023/08/18 09:29:20;;;;;;;9.93;7.63;;;;;;;23.66;96.84;101209.16;6120596;28;20135;-66
2023/08/18 09:32:16;;;;;;;10.85;8.35;;;;;;;23.92;93.72;101202.69;6120433;28;20032;-66
2023/08/18 09:35:12;;;;;;;9.50;7.63;;;;;;;23.27;98.11;101198.56;6118638;28;20033;-66
2023/08/18 09:38:12;;;;;;;13.10;9.30;;;;;;;23.19;98.67;101189.84;6125142;28;20059;-66
2023/08/18 09:41:08;;;;;;;10.57;8.45;;;;;;;23.75;100.00;101171.81;6128660;28;20044;-66
2023/08/18 09:44:04;;;;;;;14.05;9.23;;;;;;;24.06;95.85;101187.16;6124682;28;20119;-66
2023/08/18 09:47:04;;;;;;;13.57;8.95;;;;;;;24.31;93.18;101188.00;6125185;28;20025;-66
2023/08/18 09:50:00;;;;;;;11.52;7.80;;;;;;;24.71;94.36;101180.22;6125369;28;20503;-67
2023/08/18 09:52:57;;;;;;;12.45;8.23;;;;;;;24.52;94.03;101170.44;6125337;28;20483;-66
2023/08/18 09:56:16;;;;;;;13.13;8.52;;;;;;;24.39;91.21;101147.03;6124562;28;20035;-66
2023/08/18 09:59:31;;;;;;;12.27;8.55;;;;;;;24.55;91.97;101181.69;6124546;28;20075;-66
2023/08/18 10:02:33;;;;;;;11.13;8.40;;;;;;;24.76;90.04;101173.06;6125691;28;20059;-66
2023/08/18 10:05:28;;;;;;;15.27;9.50;;;;;;;24.50;91.86;101172.56;6123587;28;20101;-66
2023/08/18 10:08:25;;;;;;;11.70;8.55;;;;;;;24.38;90.90;101164.34;6125167;28;20036;-66
2023/08/18 10:11:21;;;;;;;11.73;7.75;;;;;;;25.07;94.08;101168.53;6124561;28;20043;-67
2023/08/18 10:14:18;;;;;;;10.82;7.95;;;;;;;24.94;91.41;101149.72;6124676;28;20067;-66
2023/08/18 10:17:14;;;;;;;10.05;7.53;;;;;;;25.30;90.10;101161.28;6127724;28;20035;-67
2023/08/18 10:20:11;;;;;;;11.40;7.93;;;;;;;25.36;88.27;101152.22;6123581;28;20099;-66
2023/08/18 10:23:06;;;;;;;9.57;6.45;;;;;;;25.82;88.25;101146.06;6124726;28;20449;-67
2023/08/18 10:26:02;;;;;;;10.40;7.60;;;;;;;25.68;84.08;101133.78;6123854;28;20028;-67
2023/08/18 10:29:14;;;;;;;9.35;7.20;;;;;;;25.28;87.16;101140.84;6124328;28;20032;-66
2023/08/18 10:32:11;;;;;;;10.85;6.60;;;;;;;25.49;85.77;101121.34;6124772;28;20040;-66
2023/08/18 10:35:27;;;;;;;10.40;6.10;;;;;;;26.05;85.55;101134.38;6122081;28;20462;-66
2023/08/18 10:38:26;;;;;;;7.75;5.80;;;;;;;26.14;80.96;101124.81;6123675;28;20051;-67
2023/08/18 10:41:25;;;;;;;8.23;6.03;;;;;;;26.22;83.61;101135.34;6137393;28;20108;-66
2023/08/18 10:44:21;;;;;;;8.77;6.20;;;;;;;26.33;81.86;101120.91;6122936;28;20052;-66
2023/08/18 10:47:30;;;;;;;6.53;5.13;;;;;;;26.40;83.13;101116.13;6123142;28;20085;-67
2023/08/18 10:50:29;;;;;;;7.88;6.18;;;;;;;25.98;86.59;101130.97;6123492;28;20116;-67
2023/08/18 10:53:24;;;;;;;8.98;6.18;;;;;;;25.96;85.46;101120.31;6123871;28;20059;-66
2023/08/18 10:56:20;;;;;;;6.05;5.07;;;;;;;26.61;81.72;101112.75;6123852;28;20056;-67
2023/08/18 10:59:17;;;;;;;7.80;5.50;;;;;;;26.52;80.83;101114.22;6123607;28;20029;-66
2023/08/18 11:02:13;;;;;;;7.65;5.35;;;;;;;26.62;81.33;101119.03;6124624;28;20392;-67
2023/08/18 11:05:09;;;;;;;6.05;4.68;;;;;;;26.83;83.63;101120.28;6122180;28;20392;-67
2023/08/18 11:08:07;;;;;;;8.23;5.13;;;;;;;26.87;80.22;101127.75;6133631;28;20100;-66
2023/08/18 11:26:01;;;;;;;6.18;5.05;;;;;;;26.89;77.57;101097.53;6166707;27;20849;-67
2023/08/18 11:28:57;;;;;;;8.93;5.03;;;;;;;26.83;77.25;101091.19;6178414;27;20147;-67
2023/08/18 11:31:53;;;;;;;6.40;4.38;;;;;;;27.15;76.18;101097.75;6142445;28;20449;-67
2023/08/18 11:34:48;;;;;;;10.77;5.35;;;;;;;27.02;78.57;101089.91;6141291;28;20139;-67
2023/08/18 11:37:45;;;;;;;6.03;4.63;;;;;;;27.50;76.64;101086.69;6141883;28;20475;-67
2023/08/18 11:40:42;;;;;;;7.97;4.55;;;;;;;27.56;74.33;101088.38;6149653;28;20047;-67
2023/08/18 11:47:29;;;;;;;6.88;5.35;;;;;;;27.82;72.68;101081.44;6140712;28;20048;-67
2023/08/18 11:54:16;;;;;;;6.05;4.65;;;;;;;28.35;71.05;101089.81;6140293;28;20025;-67
2023/08/18 11:57:15;;;;;;;6.43;4.68;;;;;;;28.38;70.15;101084.94;6141104;28;20036;-67
2023/08/18 12:00:13;;;;;;;7.45;4.40;;;;;;;28.26;70.66;101083.19;6142541;28;20040;-67
2023/08/18 12:03:25;;;;;;;6.47;4.63;;;;;;;28.32;71.65;101079.41;6134482;28;20394;-68
2023/08/18 12:06:24;;;;;;;9.27;5.20;;;;;;;28.25;71.22;101065.16;6139240;28;20507;-67
2023/08/18 12:09:21;;;;;;;7.15;4.82;;;;;;;28.26;68.69;101083.19;6127381;28;20111;-67
2023/08/18 12:12:16;;;;;;;7.63;4.93;;;;;;;28.03;72.48;101074.38;6133354;28;20042;-67
2023/08/18 12:15:12;;;;;;;7.60;5.00;;;;;;;28.31;71.62;101076.97;6140891;28;20032;-67
2023/08/18 12:18:10;;;;;;;7.70;4.77;;;;;;;28.34;72.09;101076.44;6141277;28;20266;-67
2023/08/18 12:21:06;;;;;;;6.18;4.43;;;;;;;28.49;70.62;101064.88;6140996;28;20364;-67
2023/08/18 12:24:05;;;;;;;7.30;4.65;;;;;;;28.22;69.43;101073.00;6149499;28;20071;-67
2023/08/18 12:27:01;;;;;;;6.65;5.00;;;;;;;28.47;69.37;101061.59;6150568;28;20078;-67
2023/08/18 12:29:56;;;;;;;7.97;5.00;;;;;;;28.51;69.27;101057.28;6141385;28;20044;-67
2023/08/18 12:32:51;;;;;;;7.60;4.30;;;;;;;29.22;66.91;101056.94;6140771;28;20277;-67
2023/08/18 12:35:47;;;;;;;5.63;4.55;;;;;;;28.87;69.63;101048.38;6132851;28;20275;-67
2023/08/18 12:38:42;;;;;;;5.67;4.13;;;;;;;28.50;71.27;101061.91;6124303;28;20043;-67
2023/08/18 12:41:37;;;;;;;5.10;4.20;;;;;;;28.55;68.84;101058.41;6122912;28;20320;-67
2023/08/18 12:44:33;;;;;;;8.33;4.83;;;;;;;29.09;68.97;101051.88;6111043;28;20383;-67
2023/08/18 12:47:28;;;;;;;8.97;5.43;;;;;;;28.77;71.80;101031.91;6136027;28;20491;-67
2023/08/18 12:50:23;;;;;;;7.33;5.23;;;;;;;29.24;66.62;101051.22;6112327;28;20041;-67
2023/08/18 12:53:19;;;;;;;6.97;5.20;;;;;;;29.30;65.88;101031.84;6109283;28;20592;-67
2023/08/18 12:56:14;;;;;;;6.18;5.15;;;;;;;29.34;65.65;101040.38;6122929;28;20472;-67
2023/08/18 12:59:09;;;;;;;8.17;5.50;;;;;;;29.32;65.55;101026.97;6121044;28;20124;-67
2023/08/18 13:02:05;;;;;;;6.43;5.50;;;;;;;29.45;65.69;101036.63;6121806;28;20044;-68
2023/08/18 13:05:00;;;;;;;6.90;5.55;;;;;;;29.38;64.76;101028.63;6123464;28;20464;-67
2023/08/18 13:07:56;;;;;;;9.00;5.70;;;;;;;29.00;65.11;101039.78;6116296;28;20036;-67
2023/08/18 13:10:52;;;;;;;7.43;5.60;;;;;;;29.36;62.65;101021.78;6118139;28;20336;-68
2023/08/18 13:13:47;;;;;;;9.60;6.03;;;;;;;29.75;63.15;101042.28;6123238;28;20287;-68
2023/08/18 13:16:42;;;;;;;8.73;5.87;;;;;;;29.38;63.70;101020.44;6118691;28;20039;-67
2023/08/18 13:19:38;;;;;;;9.30;6.70;;;;;;;29.26;62.28;101049.06;6117836;28;20036;-67
2023/08/18 13:22:35;;;;;;;8.82;6.22;;;;;;;28.96;65.58;101029.63;6122412;28;20287;-67
2023/08/18 13:25:32;;;;;;;8.20;5.80;;;;;;;29.21;65.06;101022.53;6111563;28;20028;-67
2023/08/18 13:28:27;;;;;;;9.25;6.07;;;;;;;29.33;65.28;101022.31;6121317;28;20431;-67
2023/08/18 13:31:23;;;;;;;7.53;5.80;;;;;;;29.36;63.37;101008.97;6123008;28;20121;-67
2023/08/18 13:34:20;;;;;;;9.30;6.85;;;;;;;29.33;64.91;101006.75;6122587;28;20346;-68
2023/08/18 13:37:15;;;;;;;8.35;6.30;;;;;;;29.73;63.63;101005.38;6118831;28;20479;-67
2023/08/18 13:40:10;;;;;;;8.67;6.03;;;;;;;29.49;63.15;101003.03;6115594;28;20037;-68
2023/08/18 13:43:06;;;;;;;7.95;6.43;;;;;;;30.03;63.05;101006.34;6120755;28;20028;-67
2023/08/18 13:46:01;;;;;;;9.87;6.27;;;;;;;30.10;62.46;100992.44;6128947;28;20036;-67
2023/08/18 13:48:56;;;;;;;7.57;5.90;;;;;;;29.78;61.21;101002.66;6124239;28;20116;-69
2023/08/18 13:51:52;;;;;;;7.45;5.75;;;;;;;29.81;61.48;100996.69;6118874;28;20043;-67